地図

経路データ

SID SEASON NUMBER BASIN SUBBASIN NAME ISO_TIME NATURE LAT LON WMO_WIND WMO_PRES WMO_AGENCY TRACK_TYPE DIST2LAND LANDFALL IFLAG USA_AGENCY USA_ATCF_ID USA_LAT USA_LON USA_RECORD USA_STATUS USA_WIND USA_PRES USA_SSHS USA_R34_NE USA_R34_SE USA_R34_SW USA_R34_NW USA_R50_NE USA_R50_SE USA_R50_SW USA_R50_NW USA_R64_NE USA_R64_SE USA_R64_SW USA_R64_NW USA_POCI USA_ROCI USA_RMW USA_EYE TOKYO_LAT TOKYO_LON TOKYO_GRADE TOKYO_WIND TOKYO_PRES TOKYO_R50_DIR TOKYO_R50_LONG TOKYO_R50_SHORT TOKYO_R30_DIR TOKYO_R30_LONG TOKYO_R30_SHORT TOKYO_LAND CMA_LAT CMA_LON CMA_CAT CMA_WIND CMA_PRES HKO_LAT HKO_LON HKO_CAT HKO_WIND HKO_PRES NEWDELHI_LAT NEWDELHI_LON NEWDELHI_GRADE NEWDELHI_WIND NEWDELHI_PRES NEWDELHI_CI NEWDELHI_DP NEWDELHI_POCI REUNION_LAT REUNION_LON REUNION_TYPE REUNION_WIND REUNION_PRES REUNION_TNUM REUNION_CI REUNION_RMW REUNION_R34_NE REUNION_R34_SE REUNION_R34_SW REUNION_R34_NW REUNION_R50_NE REUNION_R50_SE REUNION_R50_SW REUNION_R50_NW REUNION_R64_NE REUNION_R64_SE REUNION_R64_SW REUNION_R64_NW BOM_LAT BOM_LON BOM_TYPE BOM_WIND BOM_PRES BOM_TNUM BOM_CI BOM_RMW BOM_R34_NE BOM_R34_SE BOM_R34_SW BOM_R34_NW BOM_R50_NE BOM_R50_SE BOM_R50_SW BOM_R50_NW BOM_R64_NE BOM_R64_SE BOM_R64_SW BOM_R64_NW BOM_ROCI BOM_POCI BOM_EYE BOM_POS_METHOD BOM_PRES_METHOD NADI_LAT NADI_LON NADI_CAT NADI_WIND NADI_PRES WELLINGTON_LAT WELLINGTON_LON WELLINGTON_WIND WELLINGTON_PRES DS824_LAT DS824_LON DS824_STAGE DS824_WIND DS824_PRES TD9636_LAT TD9636_LON TD9636_STAGE TD9636_WIND TD9636_PRES TD9635_LAT TD9635_LON TD9635_WIND TD9635_PRES TD9635_ROCI NEUMANN_LAT NEUMANN_LON NEUMANN_CLASS NEUMANN_WIND NEUMANN_PRES MLC_LAT MLC_LON MLC_CLASS MLC_WIND MLC_PRES USA_GUST BOM_GUST BOM_GUST_PER REUNION_GUST REUNION_GUST_PER USA_SEAHGT USA_SEARAD_NE USA_SEARAD_SE USA_SEARAD_SW USA_SEARAD_NW STORM_SPEED STORM_DIR
1938071S15062 1938 19 SI MM NOT_NAMED 1938-03-12 06:00:00 NR -14.7000 62.2000 spur-other 770 741 __________O___ -1 -14.7000 62.2000 7 6 256
1938071S15062 1938 19 SI MM NOT_NAMED 1938-03-12 09:00:00 NR -14.7784 61.8771 spur-other 741 713 __________P___ -1 -14.7828 61.9345 7 6 255
1938071S15062 1938 19 SI MM NOT_NAMED 1938-03-12 12:00:00 NR -14.8566 61.5923 spur-other 713 695 __________P___ -1 -14.8624 61.6552 7 6 254
1938071S15062 1938 19 SI MM NOT_NAMED 1938-03-12 15:00:00 NR -14.9315 61.3114 spur-other 695 669 __________P___ -1 -14.9358 61.3482 7 6 256
1938071S15062 1938 19 SI MM NOT_NAMED 1938-03-12 18:00:00 NR -15.0000 61.0000 spur-other 669 638 __________O___ -1 -15.0000 61.0000 7 7 260
1938071S15062 1938 19 SI MM NOT_NAMED 1938-03-12 21:00:00 NR -15.0533 60.6027 spur-other 638 619 __________P___ -1 -15.0533 60.6027 7 8 263
1938071S15062 1938 19 SI MM NOT_NAMED 1938-03-13 00:00:00 NR -15.1002 60.1723 spur-other 619 602 __________P___ -1 -15.1002 60.1723 7 8 264
1938071S15062 1938 19 SI MM NOT_NAMED 1938-03-13 03:00:00 NR -15.1470 59.7308 spur-other 598 573 __________P___ -1 -15.1470 59.7308 7 8 263
1938071S15062 1938 19 SI MM NOT_NAMED 1938-03-13 06:00:00 NR -15.2000 59.3000 spur-other 573 551 __________O___ -1 -15.2000 59.3000 7 8 261
1938071S15062 1938 19 SI MM NOT_NAMED 1938-03-13 09:00:00 NR -15.2675 58.9146 spur-other 551 545 __________P___ -1 -15.2675 58.9146 7 7 259
1938071S15062 1938 19 SI MM NOT_NAMED 1938-03-13 12:00:00 NR -15.3420 58.5424 spur-other 543 528 __________P___ -1 -15.3420 58.5424 7 7 258
1938071S15062 1938 19 SI MM NOT_NAMED 1938-03-13 15:00:00 NR -15.4206 58.1740 spur-other 528 514 __________P___ -1 -15.4206 58.1740 7 7 258
1938071S15062 1938 19 SI MM NOT_NAMED 1938-03-13 18:00:00 NR -15.5000 57.8000 spur-other 514 503 __________O___ -1 -15.5000 57.8000 7 7 258
1938071S15062 1938 19 SI MM NOT_NAMED 1938-03-13 21:00:00 NR -15.5704 57.4313 spur-other 503 503 __________P___ -1 -15.5704 57.4313 7 7 259
1938071S15062 1938 19 SI MM NOT_NAMED 1938-03-14 00:00:00 NR -15.6417 57.0521 spur-other 505 495 __________P___ -1 -15.6417 57.0521 7 8 259
1938071S15062 1938 19 SI MM NOT_NAMED 1938-03-14 03:00:00 NR -15.7172 56.6469 spur-other 501 492 __________P___ -1 -15.7172 56.6469 7 8 259
1938071S15062 1938 19 SI MM NOT_NAMED 1938-03-14 06:00:00 NR -15.8000 56.2000 spur-other 500 499 __________O___ -1 -15.8000 56.2000 7 9 260
1938071S15062 1938 19 SI MM NOT_NAMED 1938-03-14 09:00:00 NR -15.8810 55.6767 spur-other 507 497 __________P___ -1 -15.8922 55.7007 7 11 261
1938071S15062 1938 19 SI MM NOT_NAMED 1938-03-14 12:00:00 NR -15.9705 55.1147 spur-other 497 445 __________P___ -1 -15.9916 55.1582 7 11 260
1938071S15062 1938 19 SI MM NOT_NAMED 1938-03-14 15:00:00 NR -16.0747 54.5454 spur-other 435 385 __________P___ -1 -16.0952 54.5865 7 11 258
1938071S15062 1938 19 SI MM NOT_NAMED 1938-03-14 18:00:00 NR -16.2000 54.0000 spur-other 385 333 __________O___ -1 -16.2000 54.0000 7 10 260
1938071S15062 1938 19 SI MM NOT_NAMED 1938-03-14 21:00:00 NR -16.2558 53.4916 spur-other 336 285 ______________ -1 7 10 261
1938071S15062 1938 19 SI MM NOT_NAMED 1938-03-15 00:00:00 NR -16.3474 53.0157 spur-other 285 ______________ -1 7 9 259

IBTrACS Databaseについて

本データベースは、米国NOAAが公開する1842年以降の世界の熱帯低気圧のベストトラックデータアーカイブInternational Best Track Archive for Climate Stewardship (IBTrACS)を、ウェブで閲覧しやすい形式に変換したものです。

最終更新日:2021-10-27